Mr Thomas — WDD7163 — position and weather

sailwx.info

Track history (hours):
 
Tides and Currents Weather Stations Pressure Air Temp Water Temp Dewpoint Dewpoint Depression Visibility Wind Speed Wind Dir Waves Ship Positions

Mr Thomas

Owner: CENTRAL BOAT RENTALS, BERWICK, LA. More information available from US FCC via Universal Licensing System and Coast Guard Vessel Documentation Center.

Last reported at 2018-Feb-19 23:26 UTC. Time now 2018-Feb-22 07:19 UTC.
Position N 29°32' W 090°51'.

Length 21 m; draft 2.5 m.

Type: Tug. MMSI: 367182730.

Date/timePositionNaut miles runAvg speedWind from/ knotsBaromVisibWave heightAir tempDewpointWater temp
2018-Feb-19 23:26N 29°32' W 090°51'4 8.6
2018-Feb-19 23:00N 29°32' W 090°47'3 6.5
2018-Feb-19 22:29N 29°34' W 090°44'2 4.4
2018-Feb-19 22:01N 29°32' W 090°42'4 8.5
2018-Feb-19 21:30N 29°28' W 090°43'5 7.9
2018-Feb-19 20:55N 29°23' W 090°44'2 0.1
2018-Feb-19 04:24N 29°21' W 090°44'3 6.4
2018-Feb-19 03:56N 29°24' W 090°44'3 6.9
2018-Feb-19 03:30N 29°27' W 090°43'3 6.9
2018-Feb-19 03:00N 29°31' W 090°43'3 5.9
2018-Feb-19 02:30N 29°34' W 090°43'1 2.3
2018-Feb-19 02:00N 29°34' W 090°44'3 5.8
2018-Feb-19 01:30N 29°32' W 090°47'4 7.5
2018-Feb-19 00:59N 29°32' W 090°51'4 7.4
2018-Feb-19 00:27N 29°34' W 090°55'  
Track history (hours):
 
Tides and Currents Weather Stations Pressure Air Temp Water Temp Dewpoint Dewpoint Depression Visibility Wind Speed Wind Dir Waves Ship Positions

Mr Thomas

Owner: CENTRAL BOAT RENTALS, BERWICK, LA. More information available from US FCC via Universal Licensing System and Coast Guard Vessel Documentation Center.

Last reported at 2018-Feb-19 23:26 UTC. Time now 2018-Feb-22 07:19 UTC.
Position N 29°32' W 090°51'.

Length 21 m; draft 2.5 m.

Type: Tug. MMSI: 367182730.

Date/timePositionNaut miles runAvg speedWind from/ knotsBaromVisibWave heightAir tempDewpointWater temp
2018-Feb-19 23:26N 29°32' W 090°51'4 8.6
2018-Feb-19 23:00N 29°32' W 090°47'3 6.5
2018-Feb-19 22:29N 29°34' W 090°44'2 4.4
2018-Feb-19 22:01N 29°32' W 090°42'4 8.5
2018-Feb-19 21:30N 29°28' W 090°43'5 7.9
2018-Feb-19 20:55N 29°23' W 090°44'2 0.1
2018-Feb-19 04:24N 29°21' W 090°44'3 6.4
2018-Feb-19 03:56N 29°24' W 090°44'3 6.9
2018-Feb-19 03:30N 29°27' W 090°43'3 6.9
2018-Feb-19 03:00N 29°31' W 090°43'3 5.9
2018-Feb-19 02:30N 29°34' W 090°43'1 2.3
2018-Feb-19 02:00N 29°34' W 090°44'3 5.8
2018-Feb-19 01:30N 29°32' W 090°47'4 7.5
2018-Feb-19 00:59N 29°32' W 090°51'4 7.4
2018-Feb-19 00:27N 29°34' W 090°55'  

Dump ship's entire track history